createdAt,value
2022-11-25T00:01:17.381Z,2.88
2022-11-25T00:03:44.973Z,2.42
2022-11-25T00:06:14.074Z,2.97
2022-11-25T00:08:42.297Z,3.28
2022-11-25T00:11:09.810Z,2.63
2022-11-25T00:13:37.069Z,2.63
2022-11-25T00:16:09.987Z,2.40
2022-11-25T00:18:37.655Z,3.00
2022-11-25T00:21:09.122Z,2.58
2022-11-25T00:23:36.460Z,2.72
2022-11-25T00:26:21.967Z,2.67
2022-11-25T00:28:49.021Z,3.38
2022-11-25T00:31:17.052Z,2.67
2022-11-25T00:33:45.520Z,2.40
2022-11-25T00:36:30.609Z,2.95
2022-11-25T00:39:05.707Z,2.35
2022-11-25T00:41:51.411Z,2.15
2022-11-25T00:44:36.092Z,2.38
2022-11-25T00:47:17.809Z,2.40
2022-11-25T00:49:49.377Z,3.30
2022-11-25T00:52:20.886Z,2.92
2022-11-25T00:54:48.620Z,2.47
2022-11-25T00:57:16.783Z,2.38
2022-11-25T00:59:43.407Z,2.42
2022-11-25T01:02:11.848Z,3.10
2022-11-25T01:04:39.030Z,2.85
2022-11-25T01:07:06.111Z,2.70
2022-11-25T01:09:34.463Z,2.33
2022-11-25T01:12:03.622Z,2.53
2022-11-25T01:14:30.841Z,2.30
2022-11-25T01:16:57.610Z,2.08
2022-11-25T01:19:25.138Z,2.58
2022-11-25T01:21:51.768Z,2.47
2022-11-25T01:24:18.595Z,2.35
2022-11-25T01:26:46.056Z,2.50
2022-11-25T01:29:18.310Z,2.65
2022-11-25T01:31:45.827Z,1.90
2022-11-25T01:34:18.958Z,2.40
2022-11-25T01:36:45.975Z,2.22
2022-11-25T01:39:21.099Z,3.17
2022-11-25T01:41:48.431Z,2.47
2022-11-25T01:44:21.193Z,2.88
2022-11-25T01:46:59.093Z,2.03
2022-11-25T01:49:39.954Z,2.63
2022-11-25T01:52:14.501Z,2.45
2022-11-25T01:54:54.311Z,2.25
2022-11-25T01:57:25.319Z,2.45
2022-11-25T01:59:54.042Z,2.50
2022-11-25T02:02:23.910Z,2.10
2022-11-25T02:04:50.656Z,2.30
2022-11-25T02:07:28.079Z,2.55
2022-11-25T02:09:55.781Z,2.75
2022-11-25T02:12:23.123Z,2.55
2022-11-25T02:14:51.091Z,2.60
2022-11-25T02:17:17.802Z,2.35
2022-11-25T02:20:05.308Z,2.58
2022-11-25T02:22:58.206Z,1.90
2022-11-25T02:25:27.589Z,2.35
2022-11-25T02:28:03.220Z,1.85
2022-11-25T02:30:29.923Z,2.40
2022-11-25T02:32:59.045Z,2.20
2022-11-25T02:35:30.043Z,2.50
2022-11-25T02:38:00.885Z,2.42
2022-11-25T02:40:28.235Z,2.20
2022-11-25T02:42:55.078Z,2.17
2022-11-25T02:45:26.434Z,2.40
2022-11-25T02:47:53.159Z,2.50
2022-11-25T02:50:19.796Z,2.33
2022-11-25T02:52:46.410Z,2.55
2022-11-25T02:55:12.993Z,2.67
2022-11-25T02:57:39.658Z,2.38
2022-11-25T03:00:08.297Z,2.45
2022-11-25T03:02:35.009Z,2.45
2022-11-25T03:05:01.655Z,2.65
2022-11-25T03:07:28.351Z,3.60
2022-11-25T03:09:57.856Z,4.97
2022-11-25T03:12:24.949Z,3.47
2022-11-25T03:14:52.966Z,3.05
2022-11-25T03:17:19.602Z,2.45
2022-11-25T03:19:46.441Z,2.47
2022-11-25T03:22:13.019Z,2.70
2022-11-25T03:24:39.613Z,2.45
2022-11-25T03:27:07.731Z,2.78
2022-11-25T03:29:34.322Z,2.50
2022-11-25T03:32:04.197Z,2.90
2022-11-25T03:34:33.394Z,2.42
2022-11-25T03:37:00.560Z,2.65
2022-11-25T03:39:29.634Z,3.22
2022-11-25T03:41:56.487Z,3.17
2022-11-25T03:44:23.118Z,2.65
2022-11-25T03:46:51.236Z,2.38
2022-11-25T03:49:18.241Z,3.00
2022-11-25T03:51:45.028Z,2.97
2022-11-25T03:54:12.881Z,2.80
2022-11-25T03:56:59.436Z,2.08
2022-11-25T03:59:26.798Z,2.30
2022-11-25T04:01:53.565Z,2.63
2022-11-25T04:04:21.164Z,2.92
2022-11-25T04:06:47.846Z,2.42
2022-11-25T04:09:14.673Z,2.40
2022-11-25T04:12:00.536Z,3.15
2022-11-25T04:14:33.179Z,2.90
2022-11-25T04:17:00.339Z,2.90
2022-11-25T04:19:27.968Z,3.00
2022-11-25T04:21:54.754Z,2.75
2022-11-25T04:24:21.659Z,3.00
2022-11-25T04:26:48.410Z,2.33
2022-11-25T04:29:14.997Z,2.70
2022-11-25T04:31:43.120Z,2.78
2022-11-25T04:34:10.000Z,3.72
2022-11-25T04:36:37.066Z,3.70
2022-11-25T04:39:04.299Z,4.93
2022-11-25T04:41:30.998Z,3.75
2022-11-25T04:43:59.722Z,3.15
2022-11-25T04:46:33.792Z,3.20
2022-11-25T04:49:00.471Z,2.90
2022-11-25T04:51:27.274Z,2.92
2022-11-25T04:53:58.934Z,3.22
2022-11-25T04:56:25.662Z,3.63
2022-11-25T04:59:12.407Z,2.50
2022-11-25T05:01:43.612Z,2.90
2022-11-25T05:04:27.001Z,2.80
2022-11-25T05:06:54.591Z,2.75
2022-11-25T05:09:24.108Z,4.15
2022-11-25T05:12:01.330Z,2.78
2022-11-25T05:14:28.257Z,3.58
2022-11-25T05:16:55.033Z,3.72
2022-11-25T05:19:21.790Z,3.92
2022-11-25T05:21:48.824Z,3.22
2022-11-25T05:24:18.455Z,2.90
2022-11-25T05:26:47.456Z,2.53
2022-11-25T05:29:14.213Z,3.03
2022-11-25T05:31:40.950Z,3.38
2022-11-25T05:34:07.706Z,3.20
2022-11-25T05:36:34.549Z,3.30
2022-11-25T05:39:01.326Z,2.50
2022-11-25T05:41:45.037Z,2.85
2022-11-25T05:44:12.014Z,3.13
2022-11-25T05:46:38.721Z,2.78
2022-11-25T05:49:05.630Z,3.13
2022-11-25T05:51:32.583Z,2.83
2022-11-25T05:54:02.097Z,2.70
2022-11-25T05:56:31.300Z,2.50
2022-11-25T05:59:16.106Z,2.65
2022-11-25T06:01:58.557Z,2.83
2022-11-25T06:04:26.467Z,3.10
2022-11-25T06:06:53.299Z,3.45
2022-11-25T06:09:19.998Z,2.47
2022-11-25T06:11:46.682Z,2.47
2022-11-25T06:14:13.510Z,2.50
2022-11-25T06:16:41.010Z,3.13
2022-11-25T06:19:19.369Z,2.90
2022-11-25T06:21:46.017Z,2.22
2022-11-25T06:24:13.480Z,2.50
2022-11-25T06:26:42.196Z,2.33
2022-11-25T06:29:08.807Z,2.63
2022-11-25T06:31:36.229Z,2.78
2022-11-25T06:34:15.201Z,2.85
2022-11-25T06:36:41.994Z,2.85
2022-11-25T06:39:08.768Z,2.70
2022-11-25T06:41:35.807Z,2.53
2022-11-25T06:44:03.482Z,2.90
2022-11-25T06:46:30.283Z,2.42
2022-11-25T06:49:01.528Z,3.70
2022-11-25T06:51:28.279Z,3.38
2022-11-25T06:53:54.911Z,3.20
2022-11-25T06:56:24.242Z,3.63
2022-11-25T06:58:52.081Z,3.38
2022-11-25T07:01:21.891Z,3.40
2022-11-25T07:03:50.423Z,2.97
2022-11-25T07:06:17.973Z,3.70
2022-11-25T07:08:45.472Z,3.05
2022-11-25T07:11:19.477Z,3.53
2022-11-25T07:13:46.560Z,4.20
2022-11-25T07:16:14.023Z,3.50
2022-11-25T07:18:41.467Z,3.50
2022-11-25T07:21:16.587Z,3.25
2022-11-25T07:23:44.952Z,3.47
2022-11-25T07:26:19.850Z,3.13
2022-11-25T07:28:46.565Z,2.95
2022-11-25T07:31:28.300Z,2.78
2022-11-25T07:34:07.233Z,3.10
2022-11-25T07:36:34.871Z,3.08
2022-11-25T07:39:05.121Z,3.72
2022-11-25T07:41:32.255Z,3.10
2022-11-25T07:44:01.740Z,3.00
2022-11-25T07:46:36.603Z,3.22
2022-11-25T07:49:08.484Z,2.70
2022-11-25T07:51:43.174Z,3.60
2022-11-25T07:54:12.222Z,3.40
2022-11-25T07:56:40.335Z,2.72
2022-11-25T07:59:08.117Z,2.97
2022-11-25T08:01:34.786Z,3.22
2022-11-25T08:04:01.601Z,3.47
2022-11-25T08:06:29.428Z,3.13
2022-11-25T08:08:57.370Z,3.78
2022-11-25T08:11:29.138Z,3.58
2022-11-25T08:13:56.263Z,4.18
2022-11-25T08:16:24.548Z,3.70
2022-11-25T08:18:51.224Z,3.60
2022-11-25T08:21:18.941Z,3.65
2022-11-25T08:23:52.340Z,3.83
2022-11-25T08:26:30.133Z,4.32
2022-11-25T08:29:00.591Z,3.80
2022-11-25T08:31:33.884Z,3.65
2022-11-25T08:34:00.812Z,3.35
2022-11-25T08:36:28.857Z,3.45
2022-11-25T08:39:00.308Z,3.33
2022-11-25T08:41:33.201Z,4.43
2022-11-25T08:44:01.776Z,4.85
2022-11-25T08:46:33.515Z,4.53
2022-11-25T08:49:05.528Z,3.78
2022-11-25T08:51:34.030Z,3.90
2022-11-25T08:54:01.860Z,4.20
2022-11-25T08:56:28.667Z,3.50
2022-11-25T08:58:55.547Z,3.60
2022-11-25T09:01:25.089Z,3.20
2022-11-25T09:03:54.299Z,3.67
2022-11-25T09:06:21.534Z,3.20
2022-11-25T09:08:48.202Z,3.40
2022-11-25T09:11:15.488Z,4.30
2022-11-25T09:13:42.360Z,3.33
2022-11-25T09:16:09.471Z,4.45
2022-11-25T09:18:37.151Z,4.35
2022-11-25T09:21:11.964Z,5.25
2022-11-25T09:23:39.803Z,4.20
2022-11-25T09:26:08.043Z,4.68
2022-11-25T09:28:36.982Z,3.72
2022-11-25T09:31:08.395Z,3.90
2022-11-25T09:33:35.719Z,4.10
2022-11-25T09:36:03.437Z,4.03
2022-11-25T09:38:30.164Z,4.22
2022-11-25T09:40:59.499Z,3.97
2022-11-25T09:44:19.862Z,5.13
2022-11-25T09:47:17.726Z,4.32
2022-11-25T09:50:02.829Z,4.63
2022-11-25T09:52:53.538Z,4.30
2022-11-25T09:55:25.422Z,3.80
2022-11-25T09:58:15.083Z,4.10
2022-11-25T10:00:44.487Z,4.68
2022-11-25T10:03:19.975Z,4.15
2022-11-25T10:06:13.696Z,3.90
2022-11-25T10:08:43.776Z,3.78
2022-11-25T10:11:31.839Z,4.70
2022-11-25T10:14:05.576Z,3.35
2022-11-25T10:16:47.155Z,3.90
2022-11-25T10:19:50.800Z,2.50
2022-11-25T10:22:27.690Z,2.72
2022-11-25T10:25:03.269Z,2.80
2022-11-25T10:27:42.637Z,2.70
2022-11-25T10:30:15.840Z,3.30
2022-11-25T10:32:47.470Z,3.10
2022-11-25T10:35:29.403Z,2.53
2022-11-25T10:37:59.464Z,2.40
2022-11-25T10:40:27.466Z,2.25
2022-11-25T10:42:54.241Z,2.28
2022-11-25T10:45:30.081Z,2.20
2022-11-25T10:47:56.968Z,1.85
2022-11-25T10:50:42.952Z,2.22
2022-11-25T10:53:26.884Z,2.50
2022-11-25T10:56:03.495Z,2.63
2022-11-25T10:58:36.920Z,1.88
2022-11-25T11:01:20.410Z,2.35
2022-11-25T11:03:52.954Z,2.00
2022-11-25T11:06:37.835Z,2.22
2022-11-25T11:09:04.750Z,1.98
2022-11-25T11:11:31.643Z,2.08
2022-11-25T11:14:10.569Z,2.67
2022-11-25T11:16:39.280Z,2.20
2022-11-25T11:19:20.582Z,2.38
2022-11-25T11:21:47.666Z,2.08
2022-11-25T11:24:29.814Z,2.10
2022-11-25T11:27:06.201Z,2.13
2022-11-25T11:29:32.947Z,2.55
2022-11-25T11:32:04.854Z,2.50
2022-11-25T11:34:53.741Z,2.47
2022-11-25T11:37:29.816Z,2.67
2022-11-25T11:40:03.827Z,2.25
2022-11-25T11:42:33.353Z,2.33
2022-11-25T11:45:23.263Z,2.70
2022-11-25T11:48:18.177Z,2.28
2022-11-25T11:50:51.340Z,2.92
2022-11-25T11:53:44.353Z,2.85
2022-11-25T11:56:35.140Z,3.47
2022-11-25T11:59:31.261Z,2.78
2022-11-25T12:02:23.129Z,3.30
2022-11-25T12:05:11.441Z,3.13
2022-11-25T12:08:05.721Z,2.85
2022-11-25T12:11:06.078Z,3.20
2022-11-25T12:13:38.858Z,2.92
2022-11-25T12:16:13.065Z,3.30
2022-11-25T12:18:55.023Z,2.78
2022-11-25T12:21:53.471Z,3.28
2022-11-25T12:24:30.879Z,2.08
2022-11-25T12:27:02.567Z,3.80
2022-11-25T12:29:42.816Z,4.30
2022-11-25T12:32:38.096Z,4.80
2022-11-25T12:35:10.816Z,3.15
2022-11-25T12:37:54.137Z,3.70
2022-11-25T12:40:27.187Z,4.25
2022-11-25T12:42:56.885Z,3.58
2022-11-25T12:45:25.421Z,4.20
2022-11-25T12:47:53.068Z,4.60
2022-11-25T12:50:47.605Z,3.83
2022-11-25T12:53:30.003Z,3.78
2022-11-25T12:55:59.046Z,2.75
2022-11-25T12:58:46.516Z,4.03
2022-11-25T13:01:50.995Z,3.65
2022-11-25T13:04:47.570Z,3.45
2022-11-25T13:07:26.085Z,4.07
2022-11-25T13:09:55.756Z,3.88
2022-11-25T13:12:41.034Z,3.70
2022-11-25T13:15:27.962Z,3.63
2022-11-25T13:17:59.087Z,2.97
2022-11-25T13:20:28.924Z,3.88
2022-11-25T13:23:04.886Z,3.92
2022-11-25T13:25:32.682Z,3.70
2022-11-25T13:28:00.915Z,4.03
2022-11-25T13:30:33.755Z,4.88
2022-11-25T13:33:09.419Z,4.45
2022-11-25T13:35:56.978Z,4.28
2022-11-25T13:38:29.731Z,4.32
2022-11-25T13:41:06.755Z,3.55
2022-11-25T13:43:33.386Z,4.47
2022-11-25T13:46:00.150Z,4.60
2022-11-25T13:48:29.407Z,4.53
2022-11-25T13:51:22.053Z,3.90
2022-11-25T13:54:04.773Z,4.93
2022-11-25T13:56:34.373Z,3.95
2022-11-25T13:59:09.969Z,4.68
2022-11-25T14:01:46.826Z,4.82
2022-11-25T14:04:15.714Z,4.78
2022-11-25T14:07:07.293Z,4.00
2022-11-25T14:09:34.436Z,4.05
2022-11-25T14:12:17.988Z,4.75
2022-11-25T14:15:09.022Z,4.65
2022-11-25T14:18:07.951Z,4.55
2022-11-25T14:20:53.359Z,4.07
2022-11-25T14:23:44.071Z,3.97
2022-11-25T14:29:28.306Z,4.30
2022-11-25T14:32:05.324Z,5.82
2022-11-25T14:34:34.558Z,4.47
2022-11-25T14:37:15.063Z,4.70
2022-11-25T14:39:59.886Z,3.95
2022-11-25T14:42:33.753Z,4.38
2022-11-25T14:45:00.504Z,4.22
2022-11-25T14:47:28.848Z,4.15
2022-11-25T14:52:47.659Z,4.95
2022-11-25T14:55:27.611Z,3.67
2022-11-25T14:57:54.387Z,3.50
2022-11-25T15:00:21.382Z,3.47
2022-11-25T15:02:59.584Z,4.00
2022-11-25T15:05:44.289Z,4.13
2022-11-25T15:08:15.979Z,3.60
2022-11-25T15:10:55.299Z,3.80
2022-11-25T15:13:39.309Z,3.72
2022-11-25T15:16:16.393Z,3.42
2022-11-25T15:18:55.589Z,3.50
2022-11-25T15:21:30.335Z,3.45
2022-11-25T15:23:57.091Z,3.22
2022-11-25T15:26:29.956Z,3.78
2022-11-25T15:28:58.902Z,3.38
2022-11-25T15:31:29.109Z,4.57
2022-11-25T15:33:59.043Z,3.75
2022-11-25T15:36:28.390Z,4.00
2022-11-25T15:38:55.214Z,3.58
2022-11-25T15:41:28.133Z,3.83
2022-11-25T15:43:56.619Z,4.57
2022-11-25T15:46:24.475Z,3.75
2022-11-25T15:48:53.665Z,3.97
2022-11-25T15:51:41.702Z,3.85
2022-11-25T15:54:19.634Z,5.30
2022-11-25T15:56:51.544Z,4.40
2022-11-25T15:59:47.733Z,4.30
2022-11-25T16:02:46.887Z,5.18
2022-11-25T16:05:16.246Z,5.53
2022-11-25T16:07:52.425Z,6.90
2022-11-25T16:10:32.951Z,5.20
2022-11-25T16:13:25.916Z,4.70
2022-11-25T16:16:01.196Z,4.70
2022-11-25T16:18:58.869Z,4.40
2022-11-25T16:21:37.072Z,5.20
2022-11-25T16:24:06.614Z,4.80
2022-11-25T16:26:56.677Z,4.55
2022-11-25T16:29:26.575Z,4.85
2022-11-25T16:31:53.423Z,4.90
2022-11-25T16:34:21.967Z,4.47
2022-11-25T16:36:48.943Z,4.95
2022-11-25T16:39:16.416Z,5.22
2022-11-25T16:41:46.161Z,5.03
2022-11-25T16:44:21.307Z,4.68
2022-11-25T16:46:48.130Z,5.32
2022-11-25T16:49:16.318Z,7.28
2022-11-25T16:51:43.064Z,5.85
2022-11-25T16:54:09.780Z,5.68
2022-11-25T16:56:38.946Z,5.88
2022-11-25T16:59:05.581Z,5.30
2022-11-25T17:01:33.703Z,5.50
2022-11-25T17:04:00.571Z,4.28
2022-11-25T17:06:29.253Z,4.65
2022-11-25T17:08:56.232Z,4.65
2022-11-25T17:11:46.710Z,6.03
2022-11-25T17:14:28.375Z,4.60
2022-11-25T17:16:55.285Z,5.97
2022-11-25T17:19:22.066Z,4.55
2022-11-25T17:21:48.869Z,5.40
2022-11-25T17:24:20.509Z,4.70
2022-11-25T17:26:55.850Z,4.53
2022-11-25T17:29:31.512Z,4.68
2022-11-25T17:31:58.808Z,5.18
2022-11-25T17:34:26.816Z,4.72
2022-11-25T17:36:53.424Z,4.80
2022-11-25T17:39:20.192Z,4.50
2022-11-25T17:41:49.162Z,4.55
2022-11-25T17:44:27.021Z,4.78
2022-11-25T17:46:54.642Z,4.45
2022-11-25T17:49:22.664Z,4.35
2022-11-25T17:51:49.351Z,3.90
2022-11-25T17:54:16.459Z,3.90
2022-11-25T17:56:50.743Z,4.28
2022-11-25T17:59:26.832Z,5.10
2022-11-25T18:01:55.986Z,4.82
2022-11-25T18:04:31.521Z,4.57
2022-11-25T18:06:58.492Z,3.95
2022-11-25T18:09:25.178Z,5.22
2022-11-25T18:11:57.323Z,4.72
2022-11-25T18:14:33.008Z,4.80
2022-11-25T18:17:06.075Z,5.20
2022-11-25T18:19:33.957Z,4.25
2022-11-25T18:22:06.196Z,4.78
2022-11-25T18:24:32.817Z,4.20
2022-11-25T18:27:03.200Z,5.03
2022-11-25T18:29:30.940Z,4.72
2022-11-25T18:31:59.584Z,5.05
2022-11-25T18:34:26.838Z,5.53
2022-11-25T18:36:53.677Z,5.95
2022-11-25T18:39:20.628Z,7.65
2022-11-25T18:41:48.387Z,5.55
2022-11-25T18:44:26.746Z,6.07
2022-11-25T18:46:53.722Z,6.25
2022-11-25T18:49:20.700Z,6.00
2022-11-25T18:51:47.893Z,5.95
2022-11-25T18:54:15.622Z,6.03
2022-11-25T18:56:42.298Z,5.13
2022-11-25T18:59:14.261Z,5.95
2022-11-25T19:01:44.169Z,5.43
2022-11-25T19:04:16.370Z,5.55
2022-11-25T19:06:44.337Z,5.65
2022-11-25T19:09:11.670Z,5.32
2022-11-25T19:11:41.634Z,5.95
2022-11-25T19:14:15.272Z,5.15
2022-11-25T19:16:42.608Z,6.32
2022-11-25T19:19:19.397Z,6.25
2022-11-25T19:21:48.227Z,5.57
2022-11-25T19:24:16.493Z,5.65
2022-11-25T19:26:51.662Z,5.53
2022-11-25T19:29:41.741Z,5.35
2022-11-25T19:32:20.676Z,6.75
2022-11-25T19:34:51.503Z,8.82
2022-11-25T19:37:20.986Z,8.40
2022-11-25T19:39:49.761Z,7.68
2022-11-25T19:42:16.388Z,6.53
2022-11-25T19:44:45.734Z,6.78
2022-11-25T19:47:24.955Z,6.88
2022-11-25T19:49:58.037Z,6.15
2022-11-25T19:52:37.695Z,6.80
2022-11-25T19:55:15.593Z,8.38
2022-11-25T19:57:42.564Z,8.52
2022-11-25T20:00:10.078Z,7.35
2022-11-25T20:02:36.917Z,6.57
2022-11-25T20:05:04.628Z,6.50
2022-11-25T20:07:32.376Z,7.68
2022-11-25T20:10:15.804Z,7.03
2022-11-25T20:12:42.750Z,6.35
2022-11-25T20:15:10.158Z,7.53
2022-11-25T20:17:38.335Z,6.82
2022-11-25T20:20:10.831Z,6.55
2022-11-25T20:22:40.569Z,6.20
2022-11-25T20:25:10.701Z,7.22
2022-11-25T20:27:37.681Z,7.15
2022-11-25T20:30:28.746Z,6.82
2022-11-25T20:32:56.553Z,7.50
2022-11-25T20:35:24.638Z,6.50
2022-11-25T20:37:53.702Z,6.38
2022-11-25T20:40:23.774Z,6.78
2022-11-25T20:42:51.320Z,6.75
2022-11-25T20:45:26.443Z,6.85
2022-11-25T20:47:53.099Z,6.65
2022-11-25T20:50:21.474Z,6.78
2022-11-25T20:52:49.940Z,6.65
2022-11-25T20:55:24.775Z,7.38
2022-11-25T20:57:52.398Z,6.82
2022-11-25T21:00:24.608Z,6.43
2022-11-25T21:02:51.426Z,7.25
2022-11-25T21:05:19.491Z,7.30
2022-11-25T21:07:47.393Z,6.75
2022-11-25T21:10:25.395Z,8.10
2022-11-25T21:12:52.129Z,6.97
2022-11-25T21:15:21.449Z,7.20
2022-11-25T21:17:50.680Z,7.07
2022-11-25T21:20:18.567Z,7.05
2022-11-25T21:22:47.909Z,7.13
2022-11-25T21:25:17.221Z,6.95
2022-11-25T21:27:44.928Z,7.80
2022-11-25T21:30:21.851Z,7.07
2022-11-25T21:32:48.622Z,6.13
2022-11-25T21:35:15.346Z,7.75
2022-11-25T21:37:44.050Z,7.80
2022-11-25T21:40:28.245Z,6.82
2022-11-25T21:42:54.926Z,7.55
2022-11-25T21:45:22.328Z,7.38
2022-11-25T21:47:53.465Z,6.50
2022-11-25T21:50:20.618Z,7.35
2022-11-25T21:52:47.559Z,8.07
2022-11-25T21:55:16.087Z,7.28
2022-11-25T21:57:43.036Z,7.57
2022-11-25T22:00:24.605Z,7.72
2022-11-25T22:02:51.811Z,7.25
2022-11-25T22:05:24.626Z,7.20
2022-11-25T22:07:51.699Z,6.82
2022-11-25T22:10:18.866Z,7.57
2022-11-25T22:12:46.198Z,6.93
2022-11-25T22:15:19.439Z,7.13
2022-11-25T22:17:46.241Z,8.07
2022-11-25T22:20:25.457Z,7.40
2022-11-25T22:22:52.142Z,8.18
2022-11-25T22:25:18.907Z,7.75
2022-11-25T22:27:45.709Z,7.72
2022-11-25T22:30:17.986Z,7.45
2022-11-25T22:32:45.600Z,8.00
2022-11-25T22:35:20.147Z,8.73
2022-11-25T22:37:53.487Z,8.55
2022-11-25T22:40:22.559Z,9.18
2022-11-25T22:42:50.644Z,9.68
2022-11-25T22:45:30.660Z,9.23
2022-11-25T22:47:57.999Z,9.13
2022-11-25T22:50:28.478Z,9.50
2022-11-25T22:52:56.461Z,8.25
2022-11-25T22:55:28.007Z,8.68
2022-11-25T22:57:56.521Z,8.73
2022-11-25T23:00:25.492Z,9.57
2022-11-25T23:02:54.743Z,8.38
2022-11-25T23:05:33.542Z,9.07
2022-11-25T23:08:31.731Z,9.85
2022-11-25T23:10:58.842Z,8.20
2022-11-25T23:13:25.542Z,8.95
2022-11-25T23:16:00.491Z,8.85
2022-11-25T23:18:34.134Z,8.85
2022-11-25T23:21:05.552Z,8.77
2022-11-25T23:23:32.187Z,11.73
2022-11-25T23:25:59.262Z,9.48
2022-11-25T23:28:25.925Z,10.48
2022-11-25T23:30:55.511Z,9.10
2022-11-25T23:33:38.293Z,9.65
2022-11-25T23:36:11.022Z,9.90
2022-11-25T23:38:47.178Z,10.60
2022-11-25T23:41:15.498Z,10.30
2022-11-25T23:43:42.200Z,9.57
2022-11-25T23:46:09.374Z,10.45
2022-11-25T23:48:36.134Z,9.02
2022-11-25T23:51:02.781Z,9.98
2022-11-25T23:53:32.227Z,9.98
2022-11-25T23:55:59.360Z,9.90
2022-11-25T23:58:26.035Z,10.15
